Impacts TAF Board INFO
FOR SITUATIONAL AWARENESS. NOT TO BE USED FOR FLIGHT PLANNING PURPOSES.
IDs:

KMIA - Miami Intl, FL, US

Issued at 2335 UTC 26 May 2017
Updated at 0035 UTC 27 May 2017
Potential Impact None Slight Moderate High
Time2353Z 27/01Z 27/02Z 27/03Z 27/04Z 27/05Z 27/06Z 27/07Z 27/08Z 27/09Z 27/10Z 27/11Z 27/12Z 27/13Z>>
Type OBS PRVL PRVL PRVL PRVL PRVL PRVL PRVL PRVL PRVL PRVL PRVL PRVL PRVL
VIS 10 >6 >6 >6 >6 >6 >6 >6 >6 >6 >6 >6 >6 >6
CIG 250 -- -- -- -- -- -- -- -- -- -- -- -- --
Cover BKN SCT SCT SCT SCT SCT SCT SCT SCT SCT SCT SCT SCT SCT
FltCat VFR VFR VFR VFR VFR VFR VFR VFR VFR VFR VFR VFR VFR VFR
WX -- -- -- -- -- -- -- -- -- -- -- -- -- --
WDir 130 120 VRB VRB VRB VRB VRB VRB VRB VRB VRB VRB VRB VRB
WSpd 9 7 2 2 2 2 2 2 2 2 2 2 2 2
WGst -- -- -- -- -- -- -- -- -- -- -- -- -- --

Raw TAF
KMIA 262335Z 2700/2724 12007KT P6SM SCT070 SCT250
  FM270200 VRB02KT P6SM SCT250
  FM271800 12010KT P6SM FEW040 SCT250


Raw METAR
KMIA 262353Z 13009KT 10SM FEW040 BKN250 29/24 A3002 RMK AO2 SLP165 60017 T02890239 10328 20283 53003
KMIA 262253Z 12007KT 10SM FEW035 SCT070 BKN150 BKN250 30/24 A3002 RMK AO2 SLP164 CB N AND S DSIPTD T03000239
KMIA 262153Z 12007KT 10SM FEW025 SCT070 BKN130 BKN250 31/24 A3001 RMK AO2 LTG DSNT S RAB28E44 TSB16E50 SLP163 CB DSNT N AND S P0000 T03110244

METAR Board
Radar Display
Forecast Discussion

FOR SITUATIONAL AWARENESS. NOT TO BE USED FOR FLIGHT PLANNING PURPOSES.

Page loaded:  00:35 UTC  |   05:35 PM Pacific  |   06:35 PM Mountain  |   07:35 PM Central  |   08:35 PM Eastern

 

ADVISORIES

FORECASTS

FORECASTS

OBSERVATIONS

USER TOOLS

ABOUT US